sensor_id;sensor_type;location;lat;lon;timestamp;P1;durP1;ratioP1;P2;durP2;ratioP2
23360;SDS011;11852;50.082;18.554;2023-04-07T00:00:34;36.0;;;26.0;;
23360;SDS011;11852;50.082;18.554;2023-04-07T00:01:42;34.0;;;25.0;;
23360;SDS011;11852;50.082;18.554;2023-04-07T00:02:48;39.0;;;28.0;;
23360;SDS011;11852;50.082;18.554;2023-04-07T00:03:55;37.0;;;26.0;;
23360;SDS011;11852;50.082;18.554;2023-04-07T00:05:02;34.0;;;25.0;;
23360;SDS011;11852;50.082;18.554;2023-04-07T00:06:09;36.0;;;26.0;;
23360;SDS011;11852;50.082;18.554;2023-04-07T00:07:15;36.0;;;26.0;;
23360;SDS011;11852;50.082;18.554;2023-04-07T00:08:22;37.0;;;27.0;;
23360;SDS011;11852;50.082;18.554;2023-04-07T00:09:29;36.0;;;26.0;;
23360;SDS011;11852;50.082;18.554;2023-04-07T00:10:36;38.0;;;28.0;;
23360;SDS011;11852;50.082;18.554;2023-04-07T00:11:43;41.0;;;30.0;;
23360;SDS011;11852;50.082;18.554;2023-04-07T00:12:49;40.0;;;28.0;;
23360;SDS011;11852;50.082;18.554;2023-04-07T00:13:56;39.0;;;28.0;;
23360;SDS011;11852;50.082;18.554;2023-04-07T00:15:03;38.0;;;27.0;;
23360;SDS011;11852;50.082;18.554;2023-04-07T00:16:10;39.0;;;29.0;;
23360;SDS011;11852;50.082;18.554;2023-04-07T00:17:17;41.0;;;30.0;;
23360;SDS011;11852;50.082;18.554;2023-04-07T00:18:24;44.0;;;30.0;;
23360;SDS011;11852;50.082;18.554;2023-04-07T00:19:30;42.0;;;31.0;;
23360;SDS011;11852;50.082;18.554;2023-04-07T00:20:37;40.0;;;29.0;;
23360;SDS011;11852;50.082;18.554;2023-04-07T00:21:44;40.0;;;29.0;;
23360;SDS011;11852;50.082;18.554;2023-04-07T00:22:51;39.0;;;27.0;;
23360;SDS011;11852;50.082;18.554;2023-04-07T00:23:57;39.0;;;28.0;;
23360;SDS011;11852;50.082;18.554;2023-04-07T00:25:05;38.0;;;27.0;;
23360;SDS011;11852;50.082;18.554;2023-04-07T00:26:11;38.0;;;26.0;;
23360;SDS011;11852;50.082;18.554;2023-04-07T00:27:18;35.0;;;26.0;;
23360;SDS011;11852;50.082;18.554;2023-04-07T00:28:25;37.0;;;26.0;;
23360;SDS011;11852;50.082;18.554;2023-04-07T00:29:32;35.0;;;25.0;;
23360;SDS011;11852;50.082;18.554;2023-04-07T00:30:39;35.0;;;26.0;;
23360;SDS011;11852;50.082;18.554;2023-04-07T00:31:45;34.0;;;25.0;;
23360;SDS011;11852;50.082;18.554;2023-04-07T00:32:52;31.0;;;22.0;;
23360;SDS011;11852;50.082;18.554;2023-04-07T00:33:59;33.0;;;24.0;;
23360;SDS011;11852;50.082;18.554;2023-04-07T00:35:06;32.0;;;23.0;;
23360;SDS011;11852;50.082;18.554;2023-04-07T00:36:13;33.0;;;24.0;;
23360;SDS011;11852;50.082;18.554;2023-04-07T00:37:19;33.0;;;23.0;;
23360;SDS011;11852;50.082;18.554;2023-04-07T00:38:26;31.0;;;22.0;;
23360;SDS011;11852;50.082;18.554;2023-04-07T00:39:33;33.0;;;24.0;;
23360;SDS011;11852;50.082;18.554;2023-04-07T00:40:40;30.0;;;22.0;;
23360;SDS011;11852;50.082;18.554;2023-04-07T00:41:47;29.0;;;22.0;;
23360;SDS011;11852;50.082;18.554;2023-04-07T00:42:53;30.0;;;22.0;;
23360;SDS011;11852;50.082;18.554;2023-04-07T00:44:00;30.0;;;21.0;;
23360;SDS011;11852;50.082;18.554;2023-04-07T00:45:07;28.0;;;21.0;;
23360;SDS011;11852;50.082;18.554;2023-04-07T00:46:14;27.0;;;20.0;;
23360;SDS011;11852;50.082;18.554;2023-04-07T00:47:21;28.0;;;21.0;;
23360;SDS011;11852;50.082;18.554;2023-04-07T00:48:28;29.0;;;22.0;;
23360;SDS011;11852;50.082;18.554;2023-04-07T00:49:36;25.0;;;19.0;;
23360;SDS011;11852;50.082;18.554;2023-04-07T00:50:41;28.0;;;21.0;;
23360;SDS011;11852;50.082;18.554;2023-04-07T00:51:48;28.0;;;21.0;;
23360;SDS011;11852;50.082;18.554;2023-04-07T00:52:55;28.0;;;21.0;;
23360;SDS011;11852;50.082;18.554;2023-04-07T00:54:02;27.0;;;20.0;;
23360;SDS011;11852;50.082;18.554;2023-04-07T00:55:08;26.0;;;19.0;;
23360;SDS011;11852;50.082;18.554;2023-04-07T00:56:15;26.0;;;19.0;;
23360;SDS011;11852;50.082;18.554;2023-04-07T00:57:22;27.0;;;20.0;;
23360;SDS011;11852;50.082;18.554;2023-04-07T00:58:29;25.0;;;18.0;;
23360;SDS011;11852;50.082;18.554;2023-04-07T00:59:36;26.0;;;19.0;;
23360;SDS011;11852;50.082;18.554;2023-04-07T01:01:29;26.0;;;19.0;;
23360;SDS011;11852;50.082;18.554;2023-04-07T01:03:05;24.0;;;18.0;;
23360;SDS011;11852;50.082;18.554;2023-04-07T01:04:16;23.0;;;18.0;;
23360;SDS011;11852;50.082;18.554;2023-04-07T01:06:37;23.0;;;18.0;;
23360;SDS011;11852;50.082;18.554;2023-04-07T01:10:10;25.0;;;18.0;;
23360;SDS011;11852;50.082;18.554;2023-04-07T01:11:20;24.0;;;18.0;;
23360;SDS011;11852;50.082;18.554;2023-04-07T01:13:37;25.0;;;19.0;;
23360;SDS011;11852;50.082;18.554;2023-04-07T01:14:49;21.0;;;16.0;;
23360;SDS011;11852;50.082;18.554;2023-04-07T01:15:54;21.0;;;16.0;;
23360;SDS011;11852;50.082;18.554;2023-04-07T01:17:00;22.0;;;17.0;;
23360;SDS011;11852;50.082;18.554;2023-04-07T01:18:12;24.0;;;18.0;;
23360;SDS011;11852;50.082;18.554;2023-04-07T01:20:33;22.0;;;17.0;;
23360;SDS011;11852;50.082;18.554;2023-04-07T01:21:41;22.0;;;17.0;;
23360;SDS011;11852;50.082;18.554;2023-04-07T01:22:52;22.0;;;17.0;;
23360;SDS011;11852;50.082;18.554;2023-04-07T01:26:22;24.0;;;18.0;;
23360;SDS011;11852;50.082;18.554;2023-04-07T01:29:49;22.0;;;16.0;;
23360;SDS011;11852;50.082;18.554;2023-04-07T01:30:56;24.0;;;17.0;;
23360;SDS011;11852;50.082;18.554;2023-04-07T01:32:03;21.0;;;16.0;;
23360;SDS011;11852;50.082;18.554;2023-04-07T01:33:09;21.0;;;17.0;;
23360;SDS011;11852;50.082;18.554;2023-04-07T01:34:16;23.0;;;17.0;;
23360;SDS011;11852;50.082;18.554;2023-04-07T01:35:23;23.0;;;18.0;;
23360;SDS011;11852;50.082;18.554;2023-04-07T01:36:30;20.0;;;16.0;;
23360;SDS011;11852;50.082;18.554;2023-04-07T01:37:37;21.0;;;16.0;;
23360;SDS011;11852;50.082;18.554;2023-04-07T01:38:43;21.0;;;16.0;;
23360;SDS011;11852;50.082;18.554;2023-04-07T01:39:50;23.0;;;18.0;;
23360;SDS011;11852;50.082;18.554;2023-04-07T01:40:57;21.0;;;17.0;;
23360;SDS011;11852;50.082;18.554;2023-04-07T01:42:04;22.0;;;17.0;;
23360;SDS011;11852;50.082;18.554;2023-04-07T01:43:10;22.0;;;17.0;;
23360;SDS011;11852;50.082;18.554;2023-04-07T01:44:17;24.0;;;18.0;;
23360;SDS011;11852;50.082;18.554;2023-04-07T01:45:24;23.0;;;17.0;;
23360;SDS011;11852;50.082;18.554;2023-04-07T01:46:31;23.0;;;17.0;;
23360;SDS011;11852;50.082;18.554;2023-04-07T01:47:38;22.0;;;17.0;;
23360;SDS011;11852;50.082;18.554;2023-04-07T01:48:44;22.0;;;17.0;;
23360;SDS011;11852;50.082;18.554;2023-04-07T01:49:51;23.0;;;18.0;;
23360;SDS011;11852;50.082;18.554;2023-04-07T01:50:58;22.0;;;17.0;;
23360;SDS011;11852;50.082;18.554;2023-04-07T01:52:05;22.0;;;18.0;;
23360;SDS011;11852;50.082;18.554;2023-04-07T01:53:11;23.0;;;18.0;;
23360;SDS011;11852;50.082;18.554;2023-04-07T01:54:18;24.0;;;18.0;;
23360;SDS011;11852;50.082;18.554;2023-04-07T01:55:25;24.0;;;19.0;;
23360;SDS011;11852;50.082;18.554;2023-04-07T01:56:32;23.0;;;18.0;;
23360;SDS011;11852;50.082;18.554;2023-04-07T01:57:38;21.0;;;17.0;;
23360;SDS011;11852;50.082;18.554;2023-04-07T01:58:45;23.0;;;17.0;;
23360;SDS011;11852;50.082;18.554;2023-04-07T01:59:52;23.0;;;17.0;;
23360;SDS011;11852;50.082;18.554;2023-04-07T02:00:59;24.0;;;19.0;;
23360;SDS011;11852;50.082;18.554;2023-04-07T02:02:05;22.0;;;18.0;;
23360;SDS011;11852;50.082;18.554;2023-04-07T02:03:14;23.0;;;18.0;;
23360;SDS011;11852;50.082;18.554;2023-04-07T02:05:31;22.0;;;17.0;;
23360;SDS011;11852;50.082;18.554;2023-04-07T02:06:41;23.0;;;17.0;;
23360;SDS011;11852;50.082;18.554;2023-04-07T02:08:03;21.0;;;16.0;;
23360;SDS011;11852;50.082;18.554;2023-04-07T02:09:01;22.0;;;17.0;;
23360;SDS011;11852;50.082;18.554;2023-04-07T02:10:07;23.0;;;18.0;;
23360;SDS011;11852;50.082;18.554;2023-04-07T02:11:13;22.0;;;17.0;;
23360;SDS011;11852;50.082;18.554;2023-04-07T02:12:20;22.0;;;17.0;;
23360;SDS011;11852;50.082;18.554;2023-04-07T02:13:26;24.0;;;18.0;;
23360;SDS011;11852;50.082;18.554;2023-04-07T02:14:34;21.0;;;16.0;;
23360;SDS011;11852;50.082;18.554;2023-04-07T02:15:40;21.0;;;16.0;;
23360;SDS011;11852;50.082;18.554;2023-04-07T02:16:47;22.0;;;17.0;;
23360;SDS011;11852;50.082;18.554;2023-04-07T02:17:53;22.0;;;17.0;;
23360;SDS011;11852;50.082;18.554;2023-04-07T02:19:00;21.0;;;16.0;;
23360;SDS011;11852;50.082;18.554;2023-04-07T02:20:07;23.0;;;18.0;;
23360;SDS011;11852;50.082;18.554;2023-04-07T02:21:14;23.0;;;17.0;;
23360;SDS011;11852;50.082;18.554;2023-04-07T02:22:21;21.0;;;16.0;;
23360;SDS011;11852;50.082;18.554;2023-04-07T02:23:27;20.0;;;17.0;;
23360;SDS011;11852;50.082;18.554;2023-04-07T02:24:34;23.0;;;18.0;;
23360;SDS011;11852;50.082;18.554;2023-04-07T02:25:41;25.0;;;18.0;;
23360;SDS011;11852;50.082;18.554;2023-04-07T02:26:48;23.0;;;17.0;;
23360;SDS011;11852;50.082;18.554;2023-04-07T02:27:55;21.0;;;16.0;;
23360;SDS011;11852;50.082;18.554;2023-04-07T02:29:02;22.0;;;17.0;;
23360;SDS011;11852;50.082;18.554;2023-04-07T02:30:08;22.0;;;18.0;;
23360;SDS011;11852;50.082;18.554;2023-04-07T02:31:15;23.0;;;18.0;;
23360;SDS011;11852;50.082;18.554;2023-04-07T02:32:22;23.0;;;18.0;;
23360;SDS011;11852;50.082;18.554;2023-04-07T02:33:29;21.0;;;17.0;;
23360;SDS011;11852;50.082;18.554;2023-04-07T02:34:36;21.0;;;17.0;;
23360;SDS011;11852;50.082;18.554;2023-04-07T02:35:42;22.0;;;18.0;;
23360;SDS011;11852;50.082;18.554;2023-04-07T02:36:49;24.0;;;19.0;;
23360;SDS011;11852;50.082;18.554;2023-04-07T02:37:56;23.0;;;17.0;;
23360;SDS011;11852;50.082;18.554;2023-04-07T02:39:03;21.0;;;17.0;;
23360;SDS011;11852;50.082;18.554;2023-04-07T02:40:10;22.0;;;17.0;;
23360;SDS011;11852;50.082;18.554;2023-04-07T02:41:16;22.0;;;17.0;;
23360;SDS011;11852;50.082;18.554;2023-04-07T02:42:23;23.0;;;18.0;;
23360;SDS011;11852;50.082;18.554;2023-04-07T02:43:30;22.0;;;17.0;;
23360;SDS011;11852;50.082;18.554;2023-04-07T02:44:37;21.0;;;17.0;;
23360;SDS011;11852;50.082;18.554;2023-04-07T02:45:43;22.0;;;18.0;;
23360;SDS011;11852;50.082;18.554;2023-04-07T02:46:50;23.0;;;18.0;;
23360;SDS011;11852;50.082;18.554;2023-04-07T02:47:57;23.0;;;18.0;;
23360;SDS011;11852;50.082;18.554;2023-04-07T02:49:04;21.0;;;17.0;;
23360;SDS011;11852;50.082;18.554;2023-04-07T02:50:10;24.0;;;19.0;;
23360;SDS011;11852;50.082;18.554;2023-04-07T02:51:17;23.0;;;18.0;;
23360;SDS011;11852;50.082;18.554;2023-04-07T02:52:24;23.0;;;19.0;;
23360;SDS011;11852;50.082;18.554;2023-04-07T02:53:31;23.0;;;18.0;;
23360;SDS011;11852;50.082;18.554;2023-04-07T02:54:37;23.0;;;18.0;;
23360;SDS011;11852;50.082;18.554;2023-04-07T02:55:44;22.0;;;17.0;;
23360;SDS011;11852;50.082;18.554;2023-04-07T02:56:51;22.0;;;17.0;;
23360;SDS011;11852;50.082;18.554;2023-04-07T02:57:58;23.0;;;18.0;;
23360;SDS011;11852;50.082;18.554;2023-04-07T02:59:04;23.0;;;18.0;;
23360;SDS011;11852;50.082;18.554;2023-04-07T03:00:11;22.0;;;17.0;;
23360;SDS011;11852;50.082;18.554;2023-04-07T03:01:18;23.0;;;18.0;;
23360;SDS011;11852;50.082;18.554;2023-04-07T03:02:25;24.0;;;19.0;;
23360;SDS011;11852;50.082;18.554;2023-04-07T03:03:32;22.0;;;16.0;;
23360;SDS011;11852;50.082;18.554;2023-04-07T03:04:38;22.0;;;17.0;;
23360;SDS011;11852;50.082;18.554;2023-04-07T03:05:45;23.0;;;18.0;;
23360;SDS011;11852;50.082;18.554;2023-04-07T03:06:52;22.0;;;17.0;;
23360;SDS011;11852;50.082;18.554;2023-04-07T03:07:59;22.0;;;18.0;;
23360;SDS011;11852;50.082;18.554;2023-04-07T03:09:06;22.0;;;18.0;;
23360;SDS011;11852;50.082;18.554;2023-04-07T03:10:13;24.0;;;19.0;;
23360;SDS011;11852;50.082;18.554;2023-04-07T03:11:20;21.0;;;17.0;;
23360;SDS011;11852;50.082;18.554;2023-04-07T03:12:26;23.0;;;19.0;;
23360;SDS011;11852;50.082;18.554;2023-04-07T03:13:33;23.0;;;18.0;;
23360;SDS011;11852;50.082;18.554;2023-04-07T03:14:40;21.0;;;17.0;;
23360;SDS011;11852;50.082;18.554;2023-04-07T03:15:47;24.0;;;18.0;;
23360;SDS011;11852;50.082;18.554;2023-04-07T03:16:54;22.0;;;17.0;;
23360;SDS011;11852;50.082;18.554;2023-04-07T03:18:00;22.0;;;17.0;;
23360;SDS011;11852;50.082;18.554;2023-04-07T03:19:08;21.0;;;17.0;;
23360;SDS011;11852;50.082;18.554;2023-04-07T03:20:14;21.0;;;17.0;;
23360;SDS011;11852;50.082;18.554;2023-04-07T03:21:21;21.0;;;16.0;;
23360;SDS011;11852;50.082;18.554;2023-04-07T03:22:27;20.0;;;16.0;;
23360;SDS011;11852;50.082;18.554;2023-04-07T03:23:34;21.0;;;17.0;;
23360;SDS011;11852;50.082;18.554;2023-04-07T03:24:41;20.0;;;16.0;;
23360;SDS011;11852;50.082;18.554;2023-04-07T03:25:48;21.0;;;16.0;;
23360;SDS011;11852;50.082;18.554;2023-04-07T03:26:55;21.0;;;16.0;;
23360;SDS011;11852;50.082;18.554;2023-04-07T03:28:01;21.0;;;17.0;;
23360;SDS011;11852;50.082;18.554;2023-04-07T03:29:08;22.0;;;17.0;;
23360;SDS011;11852;50.082;18.554;2023-04-07T03:30:15;22.0;;;17.0;;
23360;SDS011;11852;50.082;18.554;2023-04-07T03:31:22;22.0;;;17.0;;
23360;SDS011;11852;50.082;18.554;2023-04-07T03:32:29;22.0;;;17.0;;
23360;SDS011;11852;50.082;18.554;2023-04-07T03:33:35;25.0;;;18.0;;
23360;SDS011;11852;50.082;18.554;2023-04-07T03:34:42;21.0;;;16.0;;
23360;SDS011;11852;50.082;18.554;2023-04-07T03:35:49;22.0;;;17.0;;
23360;SDS011;11852;50.082;18.554;2023-04-07T03:36:55;20.0;;;15.0;;
23360;SDS011;11852;50.082;18.554;2023-04-07T03:38:02;22.0;;;17.0;;
23360;SDS011;11852;50.082;18.554;2023-04-07T03:39:09;22.0;;;18.0;;
23360;SDS011;11852;50.082;18.554;2023-04-07T03:40:16;21.0;;;16.0;;
23360;SDS011;11852;50.082;18.554;2023-04-07T03:41:23;23.0;;;18.0;;
23360;SDS011;11852;50.082;18.554;2023-04-07T03:42:30;23.0;;;17.0;;
23360;SDS011;11852;50.082;18.554;2023-04-07T03:43:36;22.0;;;17.0;;
23360;SDS011;11852;50.082;18.554;2023-04-07T03:44:43;23.0;;;19.0;;
23360;SDS011;11852;50.082;18.554;2023-04-07T03:45:51;22.0;;;17.0;;
23360;SDS011;11852;50.082;18.554;2023-04-07T03:46:57;21.0;;;16.0;;
23360;SDS011;11852;50.082;18.554;2023-04-07T03:48:03;21.0;;;16.0;;
23360;SDS011;11852;50.082;18.554;2023-04-07T03:49:10;22.0;;;17.0;;
23360;SDS011;11852;50.082;18.554;2023-04-07T03:50:17;21.0;;;17.0;;
23360;SDS011;11852;50.082;18.554;2023-04-07T03:51:24;22.0;;;18.0;;
23360;SDS011;11852;50.082;18.554;2023-04-07T03:52:31;24.0;;;18.0;;
23360;SDS011;11852;50.082;18.554;2023-04-07T03:53:37;24.0;;;18.0;;
23360;SDS011;11852;50.082;18.554;2023-04-07T03:54:44;24.0;;;19.0;;
23360;SDS011;11852;50.082;18.554;2023-04-07T03:55:51;24.0;;;18.0;;
23360;SDS011;11852;50.082;18.554;2023-04-07T03:56:58;22.0;;;17.0;;
23360;SDS011;11852;50.082;18.554;2023-04-07T03:58:05;24.0;;;18.0;;
23360;SDS011;11852;50.082;18.554;2023-04-07T03:59:11;23.0;;;19.0;;
23360;SDS011;11852;50.082;18.554;2023-04-07T04:00:18;24.0;;;19.0;;
23360;SDS011;11852;50.082;18.554;2023-04-07T04:01:25;23.0;;;19.0;;
23360;SDS011;11852;50.082;18.554;2023-04-07T04:02:32;23.0;;;18.0;;
23360;SDS011;11852;50.082;18.554;2023-04-07T04:03:39;24.0;;;19.0;;
23360;SDS011;11852;50.082;18.554;2023-04-07T04:04:45;23.0;;;17.0;;
23360;SDS011;11852;50.082;18.554;2023-04-07T04:05:52;24.0;;;18.0;;
23360;SDS011;11852;50.082;18.554;2023-04-07T04:06:59;25.0;;;19.0;;
23360;SDS011;11852;50.082;18.554;2023-04-07T04:08:06;24.0;;;19.0;;
23360;SDS011;11852;50.082;18.554;2023-04-07T04:09:12;24.0;;;19.0;;
23360;SDS011;11852;50.082;18.554;2023-04-07T04:10:19;26.0;;;20.0;;
23360;SDS011;11852;50.082;18.554;2023-04-07T04:11:26;26.0;;;20.0;;
23360;SDS011;11852;50.082;18.554;2023-04-07T04:12:33;26.0;;;19.0;;
23360;SDS011;11852;50.082;18.554;2023-04-07T04:13:39;25.0;;;19.0;;
23360;SDS011;11852;50.082;18.554;2023-04-07T04:14:46;25.0;;;19.0;;
23360;SDS011;11852;50.082;18.554;2023-04-07T04:15:53;28.0;;;20.0;;
23360;SDS011;11852;50.082;18.554;2023-04-07T04:17:00;27.0;;;20.0;;
23360;SDS011;11852;50.082;18.554;2023-04-07T04:18:07;27.0;;;19.0;;
23360;SDS011;11852;50.082;18.554;2023-04-07T04:19:13;28.0;;;20.0;;
23360;SDS011;11852;50.082;18.554;2023-04-07T04:20:20;26.0;;;20.0;;
23360;SDS011;11852;50.082;18.554;2023-04-07T04:21:27;25.0;;;19.0;;
23360;SDS011;11852;50.082;18.554;2023-04-07T04:22:34;28.0;;;20.0;;
23360;SDS011;11852;50.082;18.554;2023-04-07T04:23:40;27.0;;;20.0;;
23360;SDS011;11852;50.082;18.554;2023-04-07T04:24:47;28.0;;;21.0;;
23360;SDS011;11852;50.082;18.554;2023-04-07T04:25:54;27.0;;;21.0;;
23360;SDS011;11852;50.082;18.554;2023-04-07T04:27:01;26.0;;;20.0;;
23360;SDS011;11852;50.082;18.554;2023-04-07T04:28:07;30.0;;;22.0;;
23360;SDS011;11852;50.082;18.554;2023-04-07T04:29:14;29.0;;;21.0;;
23360;SDS011;11852;50.082;18.554;2023-04-07T04:30:21;29.0;;;22.0;;
23360;SDS011;11852;50.082;18.554;2023-04-07T04:31:28;27.0;;;20.0;;
23360;SDS011;11852;50.082;18.554;2023-04-07T04:32:34;28.0;;;21.0;;
23360;SDS011;11852;50.082;18.554;2023-04-07T04:33:41;28.0;;;21.0;;
23360;SDS011;11852;50.082;18.554;2023-04-07T04:34:48;29.0;;;21.0;;
23360;SDS011;11852;50.082;18.554;2023-04-07T04:35:55;30.0;;;22.0;;
23360;SDS011;11852;50.082;18.554;2023-04-07T04:37:02;31.0;;;22.0;;
23360;SDS011;11852;50.082;18.554;2023-04-07T04:38:09;29.0;;;22.0;;
23360;SDS011;11852;50.082;18.554;2023-04-07T04:39:15;30.0;;;22.0;;
23360;SDS011;11852;50.082;18.554;2023-04-07T04:40:22;29.0;;;22.0;;
23360;SDS011;11852;50.082;18.554;2023-04-07T04:41:29;31.0;;;22.0;;
23360;SDS011;11852;50.082;18.554;2023-04-07T04:42:36;30.0;;;22.0;;
23360;SDS011;11852;50.082;18.554;2023-04-07T04:43:42;28.0;;;21.0;;
23360;SDS011;11852;50.082;18.554;2023-04-07T04:44:49;30.0;;;23.0;;
23360;SDS011;11852;50.082;18.554;2023-04-07T04:45:57;30.0;;;22.0;;
23360;SDS011;11852;50.082;18.554;2023-04-07T04:47:03;29.0;;;22.0;;
23360;SDS011;11852;50.082;18.554;2023-04-07T04:48:10;30.0;;;23.0;;
23360;SDS011;11852;50.082;18.554;2023-04-07T04:49:16;29.0;;;21.0;;
23360;SDS011;11852;50.082;18.554;2023-04-07T04:50:23;30.0;;;22.0;;
23360;SDS011;11852;50.082;18.554;2023-04-07T04:51:30;29.0;;;21.0;;
23360;SDS011;11852;50.082;18.554;2023-04-07T04:52:37;30.0;;;22.0;;
23360;SDS011;11852;50.082;18.554;2023-04-07T04:53:44;29.0;;;21.0;;
23360;SDS011;11852;50.082;18.554;2023-04-07T04:54:50;30.0;;;21.0;;
23360;SDS011;11852;50.082;18.554;2023-04-07T04:55:57;31.0;;;23.0;;
23360;SDS011;11852;50.082;18.554;2023-04-07T04:57:04;30.0;;;22.0;;
23360;SDS011;11852;50.082;18.554;2023-04-07T04:58:11;30.0;;;22.0;;
23360;SDS011;11852;50.082;18.554;2023-04-07T04:59:17;28.0;;;21.0;;
23360;SDS011;11852;50.082;18.554;2023-04-07T05:00:24;28.0;;;21.0;;
23360;SDS011;11852;50.082;18.554;2023-04-07T05:01:31;31.0;;;22.0;;
23360;SDS011;11852;50.082;18.554;2023-04-07T05:02:38;30.0;;;21.0;;
23360;SDS011;11852;50.082;18.554;2023-04-07T05:03:45;31.0;;;22.0;;
23360;SDS011;11852;50.082;18.554;2023-04-07T05:04:52;29.0;;;22.0;;
23360;SDS011;11852;50.082;18.554;2023-04-07T05:05:58;28.0;;;20.0;;
23360;SDS011;11852;50.082;18.554;2023-04-07T05:07:05;28.0;;;20.0;;
23360;SDS011;11852;50.082;18.554;2023-04-07T05:08:12;28.0;;;21.0;;
23360;SDS011;11852;50.082;18.554;2023-04-07T05:09:19;29.0;;;22.0;;
23360;SDS011;11852;50.082;18.554;2023-04-07T05:10:25;31.0;;;21.0;;
23360;SDS011;11852;50.082;18.554;2023-04-07T05:11:32;29.0;;;21.0;;
23360;SDS011;11852;50.082;18.554;2023-04-07T05:12:39;30.0;;;22.0;;
23360;SDS011;11852;50.082;18.554;2023-04-07T05:13:46;30.0;;;22.0;;
23360;SDS011;11852;50.082;18.554;2023-04-07T05:14:52;29.0;;;20.0;;
23360;SDS011;11852;50.082;18.554;2023-04-07T05:15:59;31.0;;;22.0;;
23360;SDS011;11852;50.082;18.554;2023-04-07T05:17:06;31.0;;;22.0;;
23360;SDS011;11852;50.082;18.554;2023-04-07T05:18:13;31.0;;;22.0;;
23360;SDS011;11852;50.082;18.554;2023-04-07T05:19:20;29.0;;;21.0;;
23360;SDS011;11852;50.082;18.554;2023-04-07T05:20:26;31.0;;;23.0;;
23360;SDS011;11852;50.082;18.554;2023-04-07T05:21:33;34.0;;;25.0;;
23360;SDS011;11852;50.082;18.554;2023-04-07T05:22:40;35.0;;;25.0;;
23360;SDS011;11852;50.082;18.554;2023-04-07T05:23:47;33.0;;;23.0;;
23360;SDS011;11852;50.082;18.554;2023-04-07T05:24:54;32.0;;;24.0;;
23360;SDS011;11852;50.082;18.554;2023-04-07T05:26:01;30.0;;;22.0;;
23360;SDS011;11852;50.082;18.554;2023-04-07T05:27:07;29.0;;;21.0;;
23360;SDS011;11852;50.082;18.554;2023-04-07T05:28:14;29.0;;;22.0;;
23360;SDS011;11852;50.082;18.554;2023-04-07T05:29:21;32.0;;;23.0;;
23360;SDS011;11852;50.082;18.554;2023-04-07T05:30:27;30.0;;;22.0;;
23360;SDS011;11852;50.082;18.554;2023-04-07T05:31:34;29.0;;;21.0;;
23360;SDS011;11852;50.082;18.554;2023-04-07T05:32:41;31.0;;;21.0;;
23360;SDS011;11852;50.082;18.554;2023-04-07T05:33:48;35.0;;;24.0;;
23360;SDS011;11852;50.082;18.554;2023-04-07T05:34:55;35.0;;;25.0;;
23360;SDS011;11852;50.082;18.554;2023-04-07T05:36:01;36.0;;;25.0;;
23360;SDS011;11852;50.082;18.554;2023-04-07T05:37:08;38.0;;;25.0;;
23360;SDS011;11852;50.082;18.554;2023-04-07T05:38:15;35.0;;;25.0;;
23360;SDS011;11852;50.082;18.554;2023-04-07T05:39:22;35.0;;;25.0;;
23360;SDS011;11852;50.082;18.554;2023-04-07T05:40:29;35.0;;;25.0;;
23360;SDS011;11852;50.082;18.554;2023-04-07T05:41:35;37.0;;;27.0;;
23360;SDS011;11852;50.082;18.554;2023-04-07T05:42:42;33.0;;;24.0;;
23360;SDS011;11852;50.082;18.554;2023-04-07T05:43:49;37.0;;;27.0;;
23360;SDS011;11852;50.082;18.554;2023-04-07T05:44:56;52.0;;;34.0;;
23360;SDS011;11852;50.082;18.554;2023-04-07T05:46:02;42.0;;;30.0;;
23360;SDS011;11852;50.082;18.554;2023-04-07T05:47:09;38.0;;;27.0;;
23360;SDS011;11852;50.082;18.554;2023-04-07T05:48:16;34.0;;;26.0;;
23360;SDS011;11852;50.082;18.554;2023-04-07T05:49:23;37.0;;;27.0;;
23360;SDS011;11852;50.082;18.554;2023-04-07T05:50:30;33.0;;;25.0;;
23360;SDS011;11852;50.082;18.554;2023-04-07T05:51:36;30.0;;;24.0;;
23360;SDS011;11852;50.082;18.554;2023-04-07T05:52:43;31.0;;;23.0;;
23360;SDS011;11852;50.082;18.554;2023-04-07T05:53:50;28.0;;;21.0;;
23360;SDS011;11852;50.082;18.554;2023-04-07T05:54:57;27.0;;;21.0;;
23360;SDS011;11852;50.082;18.554;2023-04-07T05:56:04;33.0;;;24.0;;
23360;SDS011;11852;50.082;18.554;2023-04-07T05:57:10;29.0;;;21.0;;
23360;SDS011;11852;50.082;18.554;2023-04-07T05:58:17;26.0;;;19.0;;
23360;SDS011;11852;50.082;18.554;2023-04-07T05:59:24;27.0;;;19.0;;
23360;SDS011;11852;50.082;18.554;2023-04-07T06:00:31;30.0;;;22.0;;
23360;SDS011;11852;50.082;18.554;2023-04-07T06:01:38;28.0;;;20.0;;
23360;SDS011;11852;50.082;18.554;2023-04-07T06:02:45;28.0;;;19.0;;
23360;SDS011;11852;50.082;18.554;2023-04-07T06:03:52;38.0;;;25.0;;
23360;SDS011;11852;50.082;18.554;2023-04-07T06:04:58;42.0;;;27.0;;
23360;SDS011;11852;50.082;18.554;2023-04-07T06:06:05;38.0;;;26.0;;
23360;SDS011;11852;50.082;18.554;2023-04-07T06:07:12;74.0;;;41.0;;
23360;SDS011;11852;50.082;18.554;2023-04-07T06:08:19;76.0;;;41.0;;
23360;SDS011;11852;50.082;18.554;2023-04-07T06:09:26;58.0;;;34.0;;
23360;SDS011;11852;50.082;18.554;2023-04-07T06:10:32;54.0;;;31.0;;
23360;SDS011;11852;50.082;18.554;2023-04-07T06:11:39;41.0;;;26.0;;
23360;SDS011;11852;50.082;18.554;2023-04-07T06:12:46;46.0;;;27.0;;
23360;SDS011;11852;50.082;18.554;2023-04-07T06:13:53;67.0;;;37.0;;
23360;SDS011;11852;50.082;18.554;2023-04-07T06:15:00;73.0;;;39.0;;
23360;SDS011;11852;50.082;18.554;2023-04-07T06:16:06;60.0;;;34.0;;
23360;SDS011;11852;50.082;18.554;2023-04-07T06:17:13;38.0;;;22.0;;
23360;SDS011;11852;50.082;18.554;2023-04-07T06:18:20;43.0;;;26.0;;
23360;SDS011;11852;50.082;18.554;2023-04-07T06:19:27;51.0;;;30.0;;
23360;SDS011;11852;50.082;18.554;2023-04-07T06:20:34;47.0;;;28.0;;
23360;SDS011;11852;50.082;18.554;2023-04-07T06:21:40;40.0;;;24.0;;
23360;SDS011;11852;50.082;18.554;2023-04-07T06:22:47;40.0;;;24.0;;
23360;SDS011;11852;50.082;18.554;2023-04-07T06:23:54;34.0;;;22.0;;
23360;SDS011;11852;50.082;18.554;2023-04-07T06:25:01;42.0;;;26.0;;
23360;SDS011;11852;50.082;18.554;2023-04-07T06:26:10;30.0;;;20.0;;
23360;SDS011;11852;50.082;18.554;2023-04-07T06:27:17;30.0;;;20.0;;
23360;SDS011;11852;50.082;18.554;2023-04-07T06:28:24;31.0;;;20.0;;
23360;SDS011;11852;50.082;18.554;2023-04-07T06:29:33;31.0;;;21.0;;
23360;SDS011;11852;50.082;18.554;2023-04-07T06:30:40;27.0;;;19.0;;
23360;SDS011;11852;50.082;18.554;2023-04-07T06:31:47;26.0;;;18.0;;
23360;SDS011;11852;50.082;18.554;2023-04-07T06:32:54;24.0;;;17.0;;
23360;SDS011;11852;50.082;18.554;2023-04-07T06:34:00;26.0;;;18.0;;
23360;SDS011;11852;50.082;18.554;2023-04-07T06:35:07;28.0;;;19.0;;
23360;SDS011;11852;50.082;18.554;2023-04-07T06:36:14;32.0;;;23.0;;
23360;SDS011;11852;50.082;18.554;2023-04-07T06:37:22;32.0;;;21.0;;
23360;SDS011;11852;50.082;18.554;2023-04-07T06:38:29;29.0;;;20.0;;
23360;SDS011;11852;50.082;18.554;2023-04-07T06:39:36;36.0;;;24.0;;
23360;SDS011;11852;50.082;18.554;2023-04-07T06:40:42;33.0;;;23.0;;
23360;SDS011;11852;50.082;18.554;2023-04-07T06:41:49;36.0;;;25.0;;
23360;SDS011;11852;50.082;18.554;2023-04-07T06:42:56;38.0;;;24.0;;
23360;SDS011;11852;50.082;18.554;2023-04-07T06:44:03;37.0;;;26.0;;
23360;SDS011;11852;50.082;18.554;2023-04-07T06:45:10;34.0;;;25.0;;
23360;SDS011;11852;50.082;18.554;2023-04-07T06:46:17;34.0;;;25.0;;
23360;SDS011;11852;50.082;18.554;2023-04-07T06:47:23;34.0;;;22.0;;
23360;SDS011;11852;50.082;18.554;2023-04-07T06:48:30;37.0;;;24.0;;
23360;SDS011;11852;50.082;18.554;2023-04-07T06:49:37;48.0;;;29.0;;